Time,TemperatureF,DewpointF,PressureIn,WindDirection,WindDirectionDegrees,WindSpeedMPH,WindSpeedGustMPH,Humidity,HourlyPrecipIn,Conditions,Clouds,dailyrainin,SoftwareType,DateUTC
2013-09-04 00:08:00,70.7,55.0,25.68,WSW,250,5.0,6.0,57,0.00,,,0.00,weatherlink.com 1.10,2013-09-04 06:08:00,
2013-09-04 00:23:00,70.0,54.0,25.69,West,259,5.0,5.0,58,0.00,,,0.00,weatherlink.com 1.10,2013-09-04 06:23:00,
2013-09-04 00:38:00,69.6,54.0,25.69,West,262,5.0,5.0,58,0.00,,,0.00,weatherlink.com 1.10,2013-09-04 06:38:00,
2013-09-04 00:53:00,69.7,54.0,25.69,West,262,3.0,4.0,58,0.00,,,0.00,weatherlink.com 1.10,2013-09-04 06:53:00,
2013-09-04 01:08:00,69.1,54.0,25.68,WNW,301,2.0,5.0,58,0.00,,,0.00,weatherlink.com 1.10,2013-09-04 07:08:00,
2013-09-04 01:24:00,67.5,53.0,25.69,WSW,243,3.0,4.0,61,0.00,,,0.00,weatherlink.com 1.10,2013-09-04 07:24:00,
2013-09-04 01:39:00,68.0,53.0,25.69,West,276,4.0,6.0,60,0.00,,,0.00,weatherlink.com 1.10,2013-09-04 07:39:00,
2013-09-04 01:54:00,66.7,54.0,25.69,West,270,3.0,-999.0,63,-99.99,,,0.00,weatherlink.com 1.10,2013-09-04 07:54:00,
2013-09-04 02:09:00,66.7,54.0,25.69,West,268,3.0,5.0,63,0.00,,,0.00,weatherlink.com 1.10,2013-09-04 08:09:00,
2013-09-04 02:24:00,66.0,54.0,25.69,NW,316,4.0,6.0,65,0.00,,,0.00,weatherlink.com 1.10,2013-09-04 08:24:00,
2013-09-04 02:39:00,65.5,53.0,25.69,SSW,204,5.0,5.0,65,0.00,,,0.00,weatherlink.com 1.10,2013-09-04 08:39:00,
2013-09-04 02:54:00,66.4,54.0,25.69,West,263,2.0,4.0,64,0.00,,,0.00,weatherlink.com 1.10,2013-09-04 08:54:00,
2013-09-04 03:09:00,65.7,54.0,25.69,West,264,4.0,6.0,66,0.00,,,0.00,weatherlink.com 1.10,2013-09-04 09:09:00,
2013-09-04 03:24:00,64.8,54.0,25.69,WSW,253,5.0,8.0,67,0.00,,,0.00,weatherlink.com 1.10,2013-09-04 09:24:00,
2013-09-04 03:39:00,63.5,53.0,25.69,West,276,3.0,5.0,69,0.00,,,0.00,weatherlink.com 1.10,2013-09-04 09:39:00,
2013-09-04 03:54:00,62.9,53.0,25.70,NW,309,3.0,5.0,71,0.00,,,0.00,weatherlink.com 1.10,2013-09-04 09:54:00,
2013-09-04 04:09:00,62.6,53.0,25.69,WSW,245,3.0,4.0,70,0.00,,,0.00,weatherlink.com 1.10,2013-09-04 10:09:00,
2013-09-04 04:24:00,62.4,53.0,25.70,NW,309,1.0,3.0,71,0.00,,,0.00,weatherlink.com 1.10,2013-09-04 10:24:00,
2013-09-04 04:39:00,63.6,54.0,25.70,NNW,340,4.0,5.0,70,0.00,,,0.00,weatherlink.com 1.10,2013-09-04 10:39:00,
2013-09-04 04:54:00,64.6,53.0,25.70,NNE,27,3.0,7.0,67,0.00,,,0.00,weatherlink.com 1.10,2013-09-04 10:54:00,
2013-09-04 05:09:00,62.6,53.0,25.71,NE,37,5.0,5.0,70,0.00,,,0.00,weatherlink.com 1.10,2013-09-04 11:09:00,
2013-09-04 05:24:00,64.0,54.0,25.71,NE,46,5.0,5.0,69,0.00,,,0.00,weatherlink.com 1.10,2013-09-04 11:24:00,
2013-09-04 05:39:00,65.3,54.0,25.71,NNE,21,4.0,5.0,66,0.00,,,0.00,weatherlink.com 1.10,2013-09-04 11:39:00,
2013-09-04 05:54:00,64.5,53.0,25.72,NNE,30,2.0,3.0,67,0.00,,,0.00,weatherlink.com 1.10,2013-09-04 11:54:00,
2013-09-04 06:09:00,64.6,53.0,25.72,NNE,13,6.0,6.0,66,0.00,,,0.00,weatherlink.com 1.10,2013-09-04 12:09:00,
2013-09-04 06:24:00,64.3,53.0,25.72,North,356,4.0,7.0,68,0.00,,,0.00,weatherlink.com 1.10,2013-09-04 12:24:00,
2013-09-04 06:39:00,64.8,54.0,25.72,NNW,344,3.0,7.0,68,0.00,,,0.00,weatherlink.com 1.10,2013-09-04 12:39:00,
2013-09-04 06:54:00,65.8,54.0,25.73,NNW,339,5.0,6.0,67,0.00,,,0.00,weatherlink.com 1.10,2013-09-04 12:54:00,
2013-09-04 07:09:00,67.2,55.0,25.73,NNE,30,5.0,8.0,66,0.00,,,0.00,weatherlink.com 1.10,2013-09-04 13:09:00,
2013-09-04 07:24:00,69.2,56.0,25.73,NNW,346,7.0,9.0,63,0.00,,,0.00,weatherlink.com 1.10,2013-09-04 13:24:00,
2013-09-04 07:39:00,70.9,57.0,25.74,NNE,30,5.0,8.0,61,0.00,,,0.00,weatherlink.com 1.10,2013-09-04 13:39:00,
2013-09-04 07:54:00,71.9,57.0,25.74,North,356,5.0,9.0,60,0.00,,,0.00,weatherlink.com 1.10,2013-09-04 13:54:00,
2013-09-04 08:09:00,73.2,58.0,25.75,NE,49,8.0,10.0,59,0.00,,,0.00,weatherlink.com 1.10,2013-09-04 14:09:00,
2013-09-04 08:24:00,73.6,58.0,25.75,NNE,30,7.0,11.0,59,0.00,,,0.00,weatherlink.com 1.10,2013-09-04 14:24:00,
2013-09-04 08:39:00,74.6,59.0,25.75,North,360,7.0,11.0,58,0.00,,,0.00,weatherlink.com 1.10,2013-09-04 14:39:00,
2013-09-04 08:55:00,75.9,59.0,25.75,NNE,26,13.0,13.0,57,0.00,,,0.00,weatherlink.com 1.10,2013-09-04 14:55:00,
2013-09-04 09:10:00,76.3,59.0,25.76,NE,52,11.0,14.0,56,0.00,,,0.00,weatherlink.com 1.10,2013-09-04 15:10:00,
2013-09-04 09:25:00,77.0,60.0,25.76,NNE,33,9.0,13.0,55,0.00,,,0.00,weatherlink.com 1.10,2013-09-04 15:25:00,
2013-09-04 09:40:00,78.3,60.0,25.76,NNE,33,7.0,11.0,53,0.00,,,0.00,weatherlink.com 1.10,2013-09-04 15:40:00,
2013-09-04 09:55:00,79.5,59.0,25.77,ENE,69,5.0,7.0,50,0.00,,,0.00,weatherlink.com 1.10,2013-09-04 15:55:00,
2013-09-04 10:10:00,81.0,59.0,25.77,North,350,6.0,10.0,48,0.00,,,0.00,weatherlink.com 1.10,2013-09-04 16:10:00,
2013-09-04 10:25:00,81.6,59.0,25.77,NNE,32,5.0,11.0,46,0.00,,,0.00,weatherlink.com 1.10,2013-09-04 16:25:00,
2013-09-04 10:40:00,82.2,59.0,25.77,NNE,19,8.0,11.0,46,0.00,,,0.00,weatherlink.com 1.10,2013-09-04 16:40:00,
2013-09-04 10:55:00,83.8,60.0,25.77,NNW,333,5.0,11.0,44,0.00,,,0.00,weatherlink.com 1.10,2013-09-04 16:55:00,
2013-09-04 11:10:00,84.2,59.0,25.77,ENE,58,10.0,12.0,42,0.00,,,0.00,weatherlink.com 1.10,2013-09-04 17:10:00,
2013-09-04 11:25:00,85.7,59.0,25.77,NNE,20,8.0,12.0,40,0.00,,,0.00,weatherlink.com 1.10,2013-09-04 17:25:00,
2013-09-04 11:40:00,86.4,59.0,25.77,NNW,338,2.0,12.0,39,0.00,,,0.00,weatherlink.com 1.10,2013-09-04 17:40:00,
2013-09-04 11:55:00,87.4,57.0,25.77,NE,34,10.0,13.0,36,0.00,,,0.00,weatherlink.com 1.10,2013-09-04 17:55:00,
2013-09-04 12:10:00,89.0,58.0,25.76,ENE,58,7.0,14.0,35,0.00,,,0.00,weatherlink.com 1.10,2013-09-04 18:10:00,
2013-09-04 12:25:00,89.8,57.0,25.76,ENE,64,10.0,14.0,33,0.00,,,0.00,weatherlink.com 1.10,2013-09-04 18:25:00,
2013-09-04 12:40:00,90.2,56.0,25.76,ENE,74,1.0,11.0,31,0.00,,,0.00,weatherlink.com 1.10,2013-09-04 18:40:00,
2013-09-04 12:55:00,91.2,56.0,25.75,East,80,9.0,12.0,30,0.00,,,0.00,weatherlink.com 1.10,2013-09-04 18:55:00,
2013-09-04 13:10:00,92.3,55.0,25.75,ESE,122,10.0,12.0,28,0.00,,,0.00,weatherlink.com 1.10,2013-09-04 19:10:00,
2013-09-04 13:25:00,92.4,55.0,25.75,NNW,347,1.0,17.0,28,0.00,,,0.00,weatherlink.com 1.10,2013-09-04 19:25:00,
2013-09-04 13:40:00,93.2,55.0,25.74,ENE,77,6.0,12.0,27,0.00,,,0.00,weatherlink.com 1.10,2013-09-04 19:40:00,
2013-09-04 13:55:00,93.8,54.0,25.74,SSE,153,4.0,12.0,26,0.00,,,0.00,weatherlink.com 1.10,2013-09-04 19:55:00,
2013-09-04 14:10:00,93.9,54.0,25.73,East,79,9.0,14.0,26,0.00,,,0.00,weatherlink.com 1.10,2013-09-04 20:10:00,
2013-09-04 14:25:00,94.3,54.0,25.73,SE,142,6.0,13.0,26,0.00,,,0.00,weatherlink.com 1.10,2013-09-04 20:25:00,
2013-09-04 14:40:00,95.1,55.0,25.73,SSE,167,8.0,11.0,26,0.00,,,0.00,weatherlink.com 1.10,2013-09-04 20:40:00,
2013-09-04 14:56:00,96.4,54.0,25.72,SSE,152,10.0,21.0,24,0.00,,,0.00,weatherlink.com 1.10,2013-09-04 20:56:00,
2013-09-04 15:11:00,95.0,54.0,25.72,WSW,248,2.0,11.0,25,0.00,,,0.00,weatherlink.com 1.10,2013-09-04 21:11:00,
2013-09-04 15:26:00,95.1,54.0,25.71,ESE,105,3.0,14.0,25,0.00,,,0.00,weatherlink.com 1.10,2013-09-04 21:26:00,
2013-09-04 15:41:00,94.7,54.0,25.71,ESE,110,8.0,10.0,25,0.00,,,0.00,weatherlink.com 1.10,2013-09-04 21:41:00,
2013-09-04 15:56:00,93.6,54.0,25.71,East,101,6.0,15.0,26,0.00,,,0.00,weatherlink.com 1.10,2013-09-04 21:56:00,
2013-09-04 16:11:00,93.4,54.0,25.70,East,96,9.0,11.0,26,0.00,,,0.00,weatherlink.com 1.10,2013-09-04 22:11:00,
2013-09-04 16:26:00,93.3,54.0,25.70,East,100,5.0,6.0,26,0.00,,,0.00,weatherlink.com 1.10,2013-09-04 22:26:00,
2013-09-04 16:41:00,93.7,55.0,25.70,ESE,108,13.0,15.0,27,0.00,,,0.00,weatherlink.com 1.10,2013-09-04 22:41:00,
2013-09-04 16:56:00,92.3,56.0,25.70,East,94,9.0,12.0,29,0.00,,,0.00,weatherlink.com 1.10,2013-09-04 22:56:00,
2013-09-04 17:11:00,90.2,59.0,25.70,East,79,7.0,11.0,35,0.00,,,0.00,weatherlink.com 1.10,2013-09-04 23:11:00,
2013-09-04 17:26:00,83.7,63.0,25.70,ENE,70,19.0,20.0,50,0.05,,,0.05,weatherlink.com 1.10,2013-09-04 23:26:00,
2013-09-04 17:41:00,70.6,66.0,25.71,East,84,23.0,52.0,85,0.18,,,0.18,weatherlink.com 1.10,2013-09-04 23:41:00,
2013-09-04 17:56:00,76.6,61.0,25.72,ESE,103,13.0,44.0,59,0.19,,,0.19,weatherlink.com 1.10,2013-09-04 23:56:00,
2013-09-04 18:11:00,79.6,61.0,25.72,East,91,22.0,23.0,53,0.19,,,0.19,weatherlink.com 1.10,2013-09-05 00:11:00,
2013-09-04 18:26:00,77.5,60.0,25.73,NE,41,8.0,16.0,56,0.14,,,0.19,weatherlink.com 1.10,2013-09-05 00:26:00,
2013-09-04 18:41:00,76.9,60.0,25.72,ENE,57,8.0,19.0,56,0.01,,,0.19,weatherlink.com 1.10,2013-09-05 00:41:00,
2013-09-04 18:56:00,76.3,61.0,25.72,ENE,65,2.0,4.0,59,0.00,,,0.19,weatherlink.com 1.10,2013-09-05 00:56:00,
2013-09-04 19:11:00,75.4,62.0,25.74,NE,46,7.0,8.0,64,0.00,,,0.19,weatherlink.com 1.10,2013-09-05 01:11:00,
2013-09-04 19:26:00,72.9,62.0,25.75,NE,39,15.0,22.0,68,0.00,,,0.19,weatherlink.com 1.10,2013-09-05 01:26:00,
2013-09-04 19:41:00,70.6,62.0,25.75,ENE,63,15.0,22.0,74,0.00,,,0.19,weatherlink.com 1.10,2013-09-05 01:41:00,
2013-09-04 19:56:00,72.2,61.0,25.74,NE,41,11.0,21.0,69,0.00,,,0.19,weatherlink.com 1.10,2013-09-05 01:56:00,
2013-09-04 20:11:00,73.3,60.0,25.75,ENE,65,17.0,19.0,64,0.00,,,0.19,weatherlink.com 1.10,2013-09-05 02:11:00,
2013-09-04 20:41:00,72.4,62.0,25.78,SSE,151,11.0,11.0,70,0.00,,,0.19,weatherlink.com 1.10,2013-09-05 02:41:00,
2013-09-04 20:56:00,70.4,63.0,25.81,SSW,208,15.0,22.0,76,0.11,,,0.30,weatherlink.com 1.10,2013-09-05 02:56:00,
2013-09-04 21:11:00,68.4,62.0,25.78,SE,132,9.0,14.0,80,0.28,,,0.47,weatherlink.com 1.10,2013-09-05 03:11:00,
2013-09-04 21:26:00,67.8,61.0,25.77,ESE,122,17.0,24.0,79,0.29,,,0.48,weatherlink.com 1.10,2013-09-05 03:26:00,
2013-09-04 21:41:00,69.2,61.0,25.76,SE,136,10.0,19.0,74,0.29,,,0.48,weatherlink.com 1.10,2013-09-05 03:41:00,
2013-09-04 21:56:00,70.1,60.0,25.79,SSW,212,28.0,28.0,71,0.18,,,0.48,weatherlink.com 1.10,2013-09-05 03:56:00,
2013-09-04 22:11:00,70.9,62.0,25.79,SW,214,18.0,32.0,74,0.01,,,0.48,weatherlink.com 1.10,2013-09-05 04:11:00,
2013-09-04 22:26:00,70.0,62.0,25.77,SSW,207,15.0,19.0,75,0.00,,,0.48,weatherlink.com 1.10,2013-09-05 04:26:00,
2013-09-04 22:41:00,69.7,61.0,25.77,South,172,19.0,22.0,73,0.00,,,0.48,weatherlink.com 1.10,2013-09-05 04:41:00,
2013-09-04 22:56:00,70.4,60.0,25.77,SSE,165,18.0,22.0,70,0.00,,,0.48,weatherlink.com 1.10,2013-09-05 04:56:00,
2013-09-04 23:11:00,70.9,60.0,25.77,SSE,156,15.0,22.0,69,0.00,,,0.48,weatherlink.com 1.10,2013-09-05 05:11:00,
2013-09-04 23:26:00,70.7,60.0,25.77,SE,135,18.0,24.0,70,0.00,,,0.48,weatherlink.com 1.10,2013-09-05 05:26:00,
2013-09-04 23:41:00,70.6,61.0,25.77,SSE,149,22.0,24.0,72,0.00,,,0.48,weatherlink.com 1.10,2013-09-05 05:41:00,
2013-09-04 23:56:00,71.5,60.0,25.76,SSE,153,20.0,30.0,68,0.00,,,0.48,weatherlink.com 1.10,2013-09-05 05:56:00,